sensor_id;sensor_type;location;lat;lon;timestamp;pressure;altitude;pressure_sealevel;temperature;humidity
63731;BME280;49747;51.334;6.830;2022-11-15T00:01:28;100415.69;;;13.00;85.56
63731;BME280;49747;51.334;6.830;2022-11-15T00:04:14;100407.44;;;13.03;85.57
63731;BME280;49747;51.334;6.830;2022-11-15T00:06:59;100410.09;;;13.03;85.99
63731;BME280;49747;51.334;6.830;2022-11-15T00:09:45;100413.34;;;13.06;85.37
63731;BME280;49747;51.334;6.830;2022-11-15T00:12:30;100400.44;;;13.02;86.09
63731;BME280;49747;51.334;6.830;2022-11-15T00:15:16;100411.13;;;13.12;86.40
63731;BME280;49747;51.334;6.830;2022-11-15T00:18:01;100401.00;;;13.05;87.55
63731;BME280;49747;51.334;6.830;2022-11-15T00:20:47;100396.25;;;13.09;86.70
63731;BME280;49747;51.334;6.830;2022-11-15T00:23:33;100403.00;;;13.13;86.30
63731;BME280;49747;51.334;6.830;2022-11-15T00:26:18;100384.84;;;13.07;86.81
63731;BME280;49747;51.334;6.830;2022-11-15T00:29:03;100401.75;;;13.17;87.12
63731;BME280;49747;51.334;6.830;2022-11-15T00:31:49;100396.94;;;13.11;87.43
63731;BME280;49747;51.334;6.830;2022-11-15T00:34:34;100401.47;;;13.20;87.26
63731;BME280;49747;51.334;6.830;2022-11-15T00:37:19;100399.66;;;13.21;87.62
63731;BME280;49747;51.334;6.830;2022-11-15T00:40:05;100392.50;;;13.21;88.26
63731;BME280;49747;51.334;6.830;2022-11-15T00:42:51;100394.63;;;13.27;87.40
63731;BME280;49747;51.334;6.830;2022-11-15T00:45:35;100401.81;;;13.27;88.02
63731;BME280;49747;51.334;6.830;2022-11-15T00:48:21;100401.69;;;13.28;87.56
63731;BME280;49747;51.334;6.830;2022-11-15T00:51:06;100397.19;;;13.29;87.82
63731;BME280;49747;51.334;6.830;2022-11-15T00:53:51;100403.38;;;13.29;88.37
63731;BME280;49747;51.334;6.830;2022-11-15T00:56:37;100399.03;;;13.28;88.23
63731;BME280;49747;51.334;6.830;2022-11-15T00:59:22;100401.97;;;13.35;87.85
63731;BME280;49747;51.334;6.830;2022-11-15T01:02:08;100400.28;;;13.34;88.35
63731;BME280;49747;51.334;6.830;2022-11-15T01:04:53;100399.28;;;13.35;88.85
63731;BME280;49747;51.334;6.830;2022-11-15T01:07:38;100393.97;;;13.35;89.41
63731;BME280;49747;51.334;6.830;2022-11-15T01:10:24;100389.47;;;13.36;88.90
63731;BME280;49747;51.334;6.830;2022-11-15T01:13:10;100388.50;;;13.37;89.24
63731;BME280;49747;51.334;6.830;2022-11-15T01:15:56;100387.25;;;13.41;88.92
63731;BME280;49747;51.334;6.830;2022-11-15T01:18:41;100382.03;;;13.39;88.90
63731;BME280;49747;51.334;6.830;2022-11-15T01:21:27;100386.13;;;13.43;89.01
63731;BME280;49747;51.334;6.830;2022-11-15T01:24:12;100389.63;;;13.44;89.65
63731;BME280;49747;51.334;6.830;2022-11-15T01:26:59;100384.00;;;13.47;89.05
63731;BME280;49747;51.334;6.830;2022-11-15T01:29:44;100378.09;;;13.43;88.93
63731;BME280;49747;51.334;6.830;2022-11-15T01:32:29;100377.41;;;13.51;89.29
63731;BME280;49747;51.334;6.830;2022-11-15T01:35:15;100373.75;;;13.52;88.59
63731;BME280;49747;51.334;6.830;2022-11-15T01:38:00;100376.88;;;13.57;88.18
63731;BME280;49747;51.334;6.830;2022-11-15T01:40:45;100371.25;;;13.60;88.50
63731;BME280;49747;51.334;6.830;2022-11-15T01:43:36;100376.47;;;13.62;88.40
63731;BME280;49747;51.334;6.830;2022-11-15T01:49:13;100366.78;;;13.61;88.64
63731;BME280;49747;51.334;6.830;2022-11-15T01:52:01;100364.94;;;13.61;89.36
63731;BME280;49747;51.334;6.830;2022-11-15T01:54:51;100354.38;;;13.60;89.46
63731;BME280;49747;51.334;6.830;2022-11-15T01:57:39;100356.38;;;13.58;89.79
63731;BME280;49747;51.334;6.830;2022-11-15T02:00:27;100369.16;;;13.64;89.08
63731;BME280;49747;51.334;6.830;2022-11-15T02:03:13;100360.28;;;13.63;89.31
63731;BME280;49747;51.334;6.830;2022-11-15T02:05:59;100354.69;;;13.66;89.46
63731;BME280;49747;51.334;6.830;2022-11-15T02:08:44;100361.84;;;13.66;89.18
63731;BME280;49747;51.334;6.830;2022-11-15T02:11:29;100349.50;;;13.65;89.60
63731;BME280;49747;51.334;6.830;2022-11-15T02:14:16;100345.13;;;13.64;89.38
63731;BME280;49747;51.334;6.830;2022-11-15T02:17:14;100339.25;;;13.70;89.44
63731;BME280;49747;51.334;6.830;2022-11-15T02:32:52;100338.13;;;13.72;89.62
63731;BME280;49747;51.334;6.830;2022-11-15T02:36:15;100330.97;;;13.73;89.61
63731;BME280;49747;51.334;6.830;2022-11-15T02:39:10;100330.97;;;13.73;89.67
63731;BME280;49747;51.334;6.830;2022-11-15T02:42:04;100333.63;;;13.73;89.84
63731;BME280;49747;51.334;6.830;2022-11-15T02:45:17;100335.16;;;13.75;90.04
63731;BME280;49747;51.334;6.830;2022-11-15T02:48:05;100337.53;;;13.78;89.97
63731;BME280;49747;51.334;6.830;2022-11-15T02:50:52;100327.84;;;13.77;89.97
63731;BME280;49747;51.334;6.830;2022-11-15T02:53:37;100319.28;;;13.74;90.82
63731;BME280;49747;51.334;6.830;2022-11-15T02:56:23;100316.63;;;13.74;90.53
63731;BME280;49747;51.334;6.830;2022-11-15T03:05:37;100337.69;;;13.77;91.04
63731;BME280;49747;51.334;6.830;2022-11-15T03:08:44;100331.53;;;13.76;90.95
63731;BME280;49747;51.334;6.830;2022-11-15T03:11:38;100335.44;;;13.82;91.02
63731;BME280;49747;51.334;6.830;2022-11-15T03:14:36;100327.69;;;13.79;90.98
63731;BME280;49747;51.334;6.830;2022-11-15T03:17:29;100337.97;;;13.84;91.12
63731;BME280;49747;51.334;6.830;2022-11-15T03:20:16;100329.66;;;13.87;90.87
63731;BME280;49747;51.334;6.830;2022-11-15T03:23:08;100321.66;;;13.87;91.32
63731;BME280;49747;51.334;6.830;2022-11-15T03:25:54;100329.41;;;13.90;90.93
63731;BME280;49747;51.334;6.830;2022-11-15T03:28:49;100328.56;;;13.89;90.84
63731;BME280;49747;51.334;6.830;2022-11-15T03:31:36;100319.13;;;13.95;91.11
63731;BME280;49747;51.334;6.830;2022-11-15T03:34:51;100320.66;;;13.88;91.85
63731;BME280;49747;51.334;6.830;2022-11-15T03:37:44;100316.16;;;13.88;91.59
63731;BME280;49747;51.334;6.830;2022-11-15T03:40:40;100305.09;;;13.93;91.17
63731;BME280;49747;51.334;6.830;2022-11-15T03:46:37;100312.22;;;13.92;91.60
63731;BME280;49747;51.334;6.830;2022-11-15T03:49:35;100306.19;;;13.90;92.13
63731;BME280;49747;51.334;6.830;2022-11-15T03:52:22;100298.75;;;13.94;91.66
63731;BME280;49747;51.334;6.830;2022-11-15T03:55:11;100294.97;;;13.96;90.88
63731;BME280;49747;51.334;6.830;2022-11-15T03:57:59;100288.63;;;13.97;91.27
63731;BME280;49747;51.334;6.830;2022-11-15T04:00:45;100284.53;;;14.03;90.29
63731;BME280;49747;51.334;6.830;2022-11-15T04:03:30;100297.31;;;13.99;91.27
63731;BME280;49747;51.334;6.830;2022-11-15T04:06:16;100291.84;;;14.01;90.75
63731;BME280;49747;51.334;6.830;2022-11-15T04:09:02;100284.13;;;13.98;91.25
63731;BME280;49747;51.334;6.830;2022-11-15T04:11:47;100291.97;;;13.99;91.41
63731;BME280;49747;51.334;6.830;2022-11-15T04:14:32;100286.53;;;14.01;91.13
63731;BME280;49747;51.334;6.830;2022-11-15T04:17:18;100284.97;;;13.98;91.44
63731;BME280;49747;51.334;6.830;2022-11-15T04:20:12;100283.00;;;14.00;91.22
63731;BME280;49747;51.334;6.830;2022-11-15T04:23:19;100289.03;;;14.02;90.96
63731;BME280;49747;51.334;6.830;2022-11-15T04:26:23;100287.75;;;14.07;90.83
63731;BME280;49747;51.334;6.830;2022-11-15T04:29:08;100293.09;;;14.07;90.79
63731;BME280;49747;51.334;6.830;2022-11-15T04:32:13;100282.00;;;14.01;90.86
63731;BME280;49747;51.334;6.830;2022-11-15T04:34:58;100286.22;;;14.04;91.15
63731;BME280;49747;51.334;6.830;2022-11-15T04:37:43;100284.94;;;14.08;91.22
63731;BME280;49747;51.334;6.830;2022-11-15T04:40:33;100281.31;;;14.09;91.21
63731;BME280;49747;51.334;6.830;2022-11-15T04:43:19;100276.25;;;14.06;90.58
63731;BME280;49747;51.334;6.830;2022-11-15T04:46:04;100284.66;;;14.11;91.00
63731;BME280;49747;51.334;6.830;2022-11-15T04:48:50;100284.53;;;14.13;90.95
63731;BME280;49747;51.334;6.830;2022-11-15T04:51:42;100282.81;;;14.12;91.01
63731;BME280;49747;51.334;6.830;2022-11-15T04:54:27;100289.72;;;14.14;91.40
63731;BME280;49747;51.334;6.830;2022-11-15T04:57:13;100299.13;;;14.18;90.85
63731;BME280;49747;51.334;6.830;2022-11-15T04:59:58;100273.13;;;14.11;92.56
63731;BME280;49747;51.334;6.830;2022-11-15T05:02:44;100279.19;;;14.13;92.99
63731;BME280;49747;51.334;6.830;2022-11-15T05:05:48;100291.38;;;14.15;92.47
63731;BME280;49747;51.334;6.830;2022-11-15T05:08:33;100286.47;;;14.11;94.39
63731;BME280;49747;51.334;6.830;2022-11-15T05:11:18;100287.19;;;14.13;93.89
63731;BME280;49747;51.334;6.830;2022-11-15T05:14:05;100290.28;;;14.18;92.99
63731;BME280;49747;51.334;6.830;2022-11-15T05:16:50;100286.75;;;14.17;93.48
63731;BME280;49747;51.334;6.830;2022-11-15T05:19:35;100288.59;;;14.17;93.43
63731;BME280;49747;51.334;6.830;2022-11-15T05:22:22;100285.09;;;14.16;93.97
63731;BME280;49747;51.334;6.830;2022-11-15T05:25:07;100277.75;;;14.18;93.84
63731;BME280;49747;51.334;6.830;2022-11-15T05:27:53;100279.88;;;14.15;93.90
63731;BME280;49747;51.334;6.830;2022-11-15T05:30:39;100281.53;;;14.16;93.65
63731;BME280;49747;51.334;6.830;2022-11-15T05:33:24;100282.25;;;14.18;93.59
63731;BME280;49747;51.334;6.830;2022-11-15T05:36:21;100278.19;;;14.14;93.68
63731;BME280;49747;51.334;6.830;2022-11-15T05:39:11;100277.75;;;14.18;93.64
63731;BME280;49747;51.334;6.830;2022-11-15T05:42:04;100280.25;;;14.20;93.15
63731;BME280;49747;51.334;6.830;2022-11-15T05:44:50;100275.09;;;14.18;93.38
63731;BME280;49747;51.334;6.830;2022-11-15T05:47:37;100275.78;;;14.20;93.26
63731;BME280;49747;51.334;6.830;2022-11-15T05:50:24;100267.78;;;14.20;93.17
63731;BME280;49747;51.334;6.830;2022-11-15T05:53:10;100278.03;;;14.25;93.04
63731;BME280;49747;51.334;6.830;2022-11-15T05:55:57;100273.53;;;14.25;92.88
63731;BME280;49747;51.334;6.830;2022-11-15T05:58:42;100270.56;;;14.28;92.87
63731;BME280;49747;51.334;6.830;2022-11-15T06:01:28;100261.69;;;14.28;92.35
63731;BME280;49747;51.334;6.830;2022-11-15T06:04:15;100267.88;;;14.28;92.61
63731;BME280;49747;51.334;6.830;2022-11-15T06:07:00;100276.59;;;14.30;92.32
63731;BME280;49747;51.334;6.830;2022-11-15T06:09:46;100275.91;;;14.28;92.51
63731;BME280;49747;51.334;6.830;2022-11-15T06:12:31;100287.28;;;14.30;92.32
63731;BME280;49747;51.334;6.830;2022-11-15T06:15:16;100284.44;;;14.32;92.34
63731;BME280;49747;51.334;6.830;2022-11-15T06:18:01;100293.91;;;14.26;92.57
63731;BME280;49747;51.334;6.830;2022-11-15T06:20:46;100298.97;;;14.29;92.13
63731;BME280;49747;51.334;6.830;2022-11-15T06:23:33;100284.44;;;14.32;92.08
63731;BME280;49747;51.334;6.830;2022-11-15T06:26:18;100298.81;;;14.31;92.18
63731;BME280;49747;51.334;6.830;2022-11-15T06:29:04;100306.69;;;14.33;92.10
63731;BME280;49747;51.334;6.830;2022-11-15T06:31:49;100303.47;;;14.29;93.29
63731;BME280;49747;51.334;6.830;2022-11-15T06:34:35;100296.94;;;13.85;97.79
63731;BME280;49747;51.334;6.830;2022-11-15T06:37:20;100298.06;;;13.43;100.00
63731;BME280;49747;51.334;6.830;2022-11-15T06:40:07;100299.59;;;13.36;100.00
63731;BME280;49747;51.334;6.830;2022-11-15T06:43:03;100303.94;;;13.27;100.00
63731;BME280;49747;51.334;6.830;2022-11-15T06:45:48;100298.53;;;13.08;100.00
63731;BME280;49747;51.334;6.830;2022-11-15T06:48:34;100304.44;;;13.02;100.00
63731;BME280;49747;51.334;6.830;2022-11-15T06:51:21;100304.81;;;12.88;100.00
63731;BME280;49747;51.334;6.830;2022-11-15T06:54:07;100304.28;;;13.03;100.00
63731;BME280;49747;51.334;6.830;2022-11-15T06:56:52;100309.94;;;13.10;100.00
63731;BME280;49747;51.334;6.830;2022-11-15T06:59:37;100320.97;;;12.96;100.00
63731;BME280;49747;51.334;6.830;2022-11-15T07:02:24;100317.72;;;12.92;100.00
63731;BME280;49747;51.334;6.830;2022-11-15T07:05:10;100322.38;;;12.90;100.00
63731;BME280;49747;51.334;6.830;2022-11-15T07:07:57;100324.34;;;12.98;100.00
63731;BME280;49747;51.334;6.830;2022-11-15T07:10:42;100327.53;;;12.92;100.00
63731;BME280;49747;51.334;6.830;2022-11-15T07:13:29;100336.44;;;13.02;100.00
63731;BME280;49747;51.334;6.830;2022-11-15T07:16:18;100331.72;;;12.85;100.00
63731;BME280;49747;51.334;6.830;2022-11-15T07:19:04;100343.13;;;12.96;100.00
63731;BME280;49747;51.334;6.830;2022-11-15T07:21:49;100342.38;;;12.85;100.00
63731;BME280;49747;51.334;6.830;2022-11-15T07:24:34;100347.03;;;12.82;100.00
63731;BME280;49747;51.334;6.830;2022-11-15T07:27:19;100351.94;;;12.87;100.00
63731;BME280;49747;51.334;6.830;2022-11-15T07:30:05;100357.84;;;12.91;100.00
63731;BME280;49747;51.334;6.830;2022-11-15T07:32:57;100358.44;;;12.94;100.00
63731;BME280;49747;51.334;6.830;2022-11-15T07:35:43;100365.59;;;12.94;99.68
63731;BME280;49747;51.334;6.830;2022-11-15T07:38:32;100360.09;;;12.86;99.73
63731;BME280;49747;51.334;6.830;2022-11-15T07:41:25;100368.69;;;12.99;98.46
63731;BME280;49747;51.334;6.830;2022-11-15T07:44:10;100374.25;;;12.86;99.16
63731;BME280;49747;51.334;6.830;2022-11-15T07:46:55;100375.19;;;12.75;99.21
63731;BME280;49747;51.334;6.830;2022-11-15T07:49:40;100384.88;;;12.76;99.44
63731;BME280;49747;51.334;6.830;2022-11-15T07:52:26;100381.28;;;12.87;99.87
63731;BME280;49747;51.334;6.830;2022-11-15T07:55:11;100372.53;;;12.75;99.86
63731;BME280;49747;51.334;6.830;2022-11-15T07:58:10;100383.91;;;12.77;99.20
63731;BME280;49747;51.334;6.830;2022-11-15T08:00:56;100382.84;;;12.90;98.21
63731;BME280;49747;51.334;6.830;2022-11-15T08:03:41;100388.09;;;13.01;97.80
63731;BME280;49747;51.334;6.830;2022-11-15T08:06:26;100388.09;;;13.01;98.40
63731;BME280;49747;51.334;6.830;2022-11-15T08:09:11;100388.63;;;13.04;97.49
63731;BME280;49747;51.334;6.830;2022-11-15T08:11:56;100388.81;;;13.13;96.60
63731;BME280;49747;51.334;6.830;2022-11-15T08:14:43;100390.34;;;13.15;96.73
63731;BME280;49747;51.334;6.830;2022-11-15T08:17:28;100395.78;;;13.25;95.50
63731;BME280;49747;51.334;6.830;2022-11-15T08:20:16;100390.09;;;13.18;94.65
63731;BME280;49747;51.334;6.830;2022-11-15T08:23:03;100380.34;;;13.28;94.85
63731;BME280;49747;51.334;6.830;2022-11-15T08:25:49;100373.75;;;13.33;95.11
63731;BME280;49747;51.334;6.830;2022-11-15T08:28:34;100376.97;;;13.36;94.13
63731;BME280;49747;51.334;6.830;2022-11-15T08:31:19;100382.75;;;13.41;94.40
63731;BME280;49747;51.334;6.830;2022-11-15T08:34:05;100385.00;;;13.46;93.99
63731;BME280;49747;51.334;6.830;2022-11-15T08:36:51;100380.34;;;13.48;94.51
63731;BME280;49747;51.334;6.830;2022-11-15T08:39:36;100377.47;;;13.90;100.00
63731;BME280;49747;51.334;6.830;2022-11-15T08:42:23;100375.78;;;13.98;100.00
63731;BME280;49747;51.334;6.830;2022-11-15T08:45:08;100367.13;;;14.43;100.00
63731;BME280;49747;51.334;6.830;2022-11-15T08:47:54;100363.78;;;14.22;90.83
63731;BME280;49747;51.334;6.830;2022-11-15T08:50:39;100354.22;;;14.86;86.42
63731;BME280;49747;51.334;6.830;2022-11-15T08:53:26;100353.78;;;15.36;83.30
63731;BME280;49747;51.334;6.830;2022-11-15T08:56:12;100357.72;;;15.59;81.44
63731;BME280;49747;51.334;6.830;2022-11-15T08:58:58;100350.28;;;15.81;79.91
63731;BME280;49747;51.334;6.830;2022-11-15T09:01:43;100348.56;;;15.97;76.66
63731;BME280;49747;51.334;6.830;2022-11-15T09:04:28;100344.97;;;16.07;75.62
63731;BME280;49747;51.334;6.830;2022-11-15T09:07:13;100341.53;;;15.96;75.63
63731;BME280;49747;51.334;6.830;2022-11-15T09:09:59;100339.63;;;15.89;76.67
63731;BME280;49747;51.334;6.830;2022-11-15T09:12:45;100332.38;;;15.81;75.67
63731;BME280;49747;51.334;6.830;2022-11-15T09:15:33;100330.47;;;16.17;74.27
63731;BME280;49747;51.334;6.830;2022-11-15T09:18:18;100345.38;;;15.13;75.52
63731;BME280;49747;51.334;6.830;2022-11-15T09:21:06;100342.06;;;15.64;74.83
63731;BME280;49747;51.334;6.830;2022-11-15T09:23:52;100336.81;;;16.94;69.92
63731;BME280;49747;51.334;6.830;2022-11-15T09:26:37;100339.16;;;17.40;67.17
63731;BME280;49747;51.334;6.830;2022-11-15T09:29:23;100338.22;;;17.98;64.47
63731;BME280;49747;51.334;6.830;2022-11-15T09:32:08;100332.84;;;18.06;63.89
63731;BME280;49747;51.334;6.830;2022-11-15T09:34:54;100328.72;;;17.29;64.16
63731;BME280;49747;51.334;6.830;2022-11-15T09:37:39;100328.16;;;17.84;63.01
63731;BME280;49747;51.334;6.830;2022-11-15T09:40:24;100324.06;;;18.45;60.22
63731;BME280;49747;51.334;6.830;2022-11-15T09:43:39;100319.03;;;17.52;60.71
63731;BME280;49747;51.334;6.830;2022-11-15T09:46:44;100318.00;;;17.45;62.62
63731;BME280;49747;51.334;6.830;2022-11-15T09:49:17;100323.78;;;17.75;61.69
63731;BME280;49747;51.334;6.830;2022-11-15T09:52:00;100307.22;;;17.20;63.16
63731;BME280;49747;51.334;6.830;2022-11-15T09:54:33;100306.56;;;16.76;64.55
63731;BME280;49747;51.334;6.830;2022-11-15T09:57:31;100305.94;;;16.30;65.93
63731;BME280;49747;51.334;6.830;2022-11-15T10:00:08;100299.84;;;16.20;66.68
63731;BME280;49747;51.334;6.830;2022-11-15T10:05:40;100286.31;;;16.04;68.22
63731;BME280;49747;51.334;6.830;2022-11-15T10:11:02;100278.44;;;15.76;67.18
63731;BME280;49747;51.334;6.830;2022-11-15T10:13:51;100291.84;;;15.31;66.46
63731;BME280;49747;51.334;6.830;2022-11-15T10:19:21;100261.06;;;15.80;65.35
63731;BME280;49747;51.334;6.830;2022-11-15T10:25:03;100267.53;;;15.60;67.14
63731;BME280;49747;51.334;6.830;2022-11-15T10:27:36;100258.09;;;15.65;66.31
63731;BME280;49747;51.334;6.830;2022-11-15T10:30:06;100258.19;;;15.64;66.27
63731;BME280;49747;51.334;6.830;2022-11-15T10:32:36;100248.28;;;15.56;66.29
63731;BME280;49747;51.334;6.830;2022-11-15T10:35:28;100252.25;;;15.34;67.36
63731;BME280;49747;51.334;6.830;2022-11-15T10:38:07;100243.00;;;15.11;67.13
63731;BME280;49747;51.334;6.830;2022-11-15T10:40:35;100238.34;;;15.48;66.89
63731;BME280;49747;51.334;6.830;2022-11-15T10:43:13;100242.56;;;15.69;66.10
63731;BME280;49747;51.334;6.830;2022-11-15T10:45:40;100244.84;;;15.46;66.25
63731;BME280;49747;51.334;6.830;2022-11-15T10:50:41;100243.69;;;15.13;64.94
63731;BME280;49747;51.334;6.830;2022-11-15T10:55:53;100228.53;;;14.86;64.44
63731;BME280;49747;51.334;6.830;2022-11-15T10:58:30;100242.78;;;15.04;64.17
63731;BME280;49747;51.334;6.830;2022-11-15T11:01:09;100229.06;;;15.07;63.23
63731;BME280;49747;51.334;6.830;2022-11-15T11:03:38;100214.31;;;14.85;63.41
63731;BME280;49747;51.334;6.830;2022-11-15T11:06:15;100224.09;;;14.76;65.47
63731;BME280;49747;51.334;6.830;2022-11-15T11:11:24;100218.31;;;14.71;63.51
63731;BME280;49747;51.334;6.830;2022-11-15T11:13:51;100224.41;;;14.64;63.91
63731;BME280;49747;51.334;6.830;2022-11-15T11:16:42;100207.34;;;14.74;63.00
63731;BME280;49747;51.334;6.830;2022-11-15T11:25:22;100209.66;;;14.87;63.76
63731;BME280;49747;51.334;6.830;2022-11-15T11:28:39;100217.22;;;14.92;63.00
63731;BME280;49747;51.334;6.830;2022-11-15T11:33:24;100198.22;;;14.67;60.92
63731;BME280;49747;51.334;6.830;2022-11-15T11:38:55;100190.28;;;14.75;61.20
63731;BME280;49747;51.334;6.830;2022-11-15T11:41:43;100185.50;;;14.79;60.75
63731;BME280;49747;51.334;6.830;2022-11-15T11:44:30;100187.44;;;14.59;58.89
63731;BME280;49747;51.334;6.830;2022-11-15T11:47:15;100197.56;;;14.28;58.80
63731;BME280;49747;51.334;6.830;2022-11-15T11:49:53;100179.50;;;14.40;59.84
63731;BME280;49747;51.334;6.830;2022-11-15T11:52:34;100184.44;;;14.44;60.16
63731;BME280;49747;51.334;6.830;2022-11-15T11:55:23;100178.22;;;14.44;59.84
63731;BME280;49747;51.334;6.830;2022-11-15T12:00:41;100181.88;;;14.52;58.18
63731;BME280;49747;51.334;6.830;2022-11-15T12:06:31;100175.91;;;14.59;56.71
63731;BME280;49747;51.334;6.830;2022-11-15T12:09:19;100170.91;;;14.73;57.31
63731;BME280;49747;51.334;6.830;2022-11-15T12:12:15;100172.97;;;14.79;56.55
63731;BME280;49747;51.334;6.830;2022-11-15T12:14:51;100164.44;;;14.94;56.93
63731;BME280;49747;51.334;6.830;2022-11-15T12:17:23;100156.53;;;14.74;57.25
63731;BME280;49747;51.334;6.830;2022-11-15T12:19:52;100149.13;;;14.86;56.78
63731;BME280;49747;51.334;6.830;2022-11-15T12:22:42;100138.34;;;14.96;56.75
63731;BME280;49747;51.334;6.830;2022-11-15T12:25:23;100140.41;;;14.66;57.25
63731;BME280;49747;51.334;6.830;2022-11-15T12:31:01;100117.88;;;14.51;56.34
63731;BME280;49747;51.334;6.830;2022-11-15T12:33:47;100125.75;;;14.43;56.64
63731;BME280;49747;51.334;6.830;2022-11-15T12:43:55;100111.19;;;14.37;57.94
63731;BME280;49747;51.334;6.830;2022-11-15T12:59:53;100070.06;;;14.84;59.82
63731;BME280;49747;51.334;6.830;2022-11-15T13:02:39;100057.44;;;14.76;59.66
63731;BME280;49747;51.334;6.830;2022-11-15T13:17:44;100036.41;;;14.99;60.13
63731;BME280;49747;51.334;6.830;2022-11-15T13:34:01;100013.91;;;14.84;61.40
63731;BME280;49747;51.334;6.830;2022-11-15T13:36:32;100017.88;;;14.79;61.86
63731;BME280;49747;51.334;6.830;2022-11-15T13:39:03;100010.25;;;14.85;62.29
63731;BME280;49747;51.334;6.830;2022-11-15T13:41:35;100007.88;;;14.82;62.19
63731;BME280;49747;51.334;6.830;2022-11-15T13:44:04;100005.63;;;14.69;62.75
63731;BME280;49747;51.334;6.830;2022-11-15T13:46:32;100010.44;;;14.65;62.54
63731;BME280;49747;51.334;6.830;2022-11-15T13:49:02;100000.09;;;14.70;62.84
63731;BME280;49747;51.334;6.830;2022-11-15T13:51:35;99990.34;;;14.61;63.52
63731;BME280;49747;51.334;6.830;2022-11-15T13:54:56;99990.03;;;14.64;63.31
63731;BME280;49747;51.334;6.830;2022-11-15T13:57:33;99981.97;;;14.82;63.66
63731;BME280;49747;51.334;6.830;2022-11-15T14:00:02;99971.22;;;14.74;63.40
63731;BME280;49747;51.334;6.830;2022-11-15T14:02:37;99969.81;;;14.88;62.94
63731;BME280;49747;51.334;6.830;2022-11-15T14:10:38;99950.91;;;14.63;63.54
63731;BME280;49747;51.334;6.830;2022-11-15T14:13:29;99941.06;;;14.64;64.00
63731;BME280;49747;51.334;6.830;2022-11-15T14:16:19;99944.00;;;14.78;64.25
63731;BME280;49747;51.334;6.830;2022-11-15T14:18:53;99946.28;;;14.65;64.71
63731;BME280;49747;51.334;6.830;2022-11-15T14:21:20;99946.81;;;14.51;65.69
63731;BME280;49747;51.334;6.830;2022-11-15T14:23:46;99936.63;;;14.72;65.79
63731;BME280;49747;51.334;6.830;2022-11-15T14:26:31;99930.53;;;14.62;66.51
63731;BME280;49747;51.334;6.830;2022-11-15T14:29:27;99935.94;;;14.70;66.46
63731;BME280;49747;51.334;6.830;2022-11-15T14:32:16;99932.97;;;14.73;66.69
63731;BME280;49747;51.334;6.830;2022-11-15T14:34:45;99917.59;;;14.75;67.02
63731;BME280;49747;51.334;6.830;2022-11-15T14:37:33;99916.41;;;14.52;67.99
63731;BME280;49747;51.334;6.830;2022-11-15T14:40:05;99911.06;;;14.52;68.30
63731;BME280;49747;51.334;6.830;2022-11-15T14:42:32;99896.88;;;14.51;68.49
63731;BME280;49747;51.334;6.830;2022-11-15T14:44:58;99901.00;;;14.46;68.85
63731;BME280;49747;51.334;6.830;2022-11-15T14:47:25;99902.38;;;14.50;69.25
63731;BME280;49747;51.334;6.830;2022-11-15T14:49:52;99895.78;;;14.62;68.85
63731;BME280;49747;51.334;6.830;2022-11-15T14:52:30;99901.19;;;14.70;68.92
63731;BME280;49747;51.334;6.830;2022-11-15T14:55:09;99895.03;;;14.52;69.48
63731;BME280;49747;51.334;6.830;2022-11-15T14:57:38;99892.53;;;14.50;69.39
63731;BME280;49747;51.334;6.830;2022-11-15T15:00:05;99899.31;;;14.45;69.92
63731;BME280;49747;51.334;6.830;2022-11-15T15:02:39;99880.84;;;14.51;70.01
63731;BME280;49747;51.334;6.830;2022-11-15T15:05:19;99876.66;;;14.49;70.28
63731;BME280;49747;51.334;6.830;2022-11-15T15:07:46;99875.34;;;14.35;70.99
63731;BME280;49747;51.334;6.830;2022-11-15T15:10:15;99875.34;;;14.35;71.02
63731;BME280;49747;51.334;6.830;2022-11-15T15:13:03;99859.84;;;14.39;71.01
63731;BME280;49747;51.334;6.830;2022-11-15T15:15:35;99861.25;;;14.25;71.47
63731;BME280;49747;51.334;6.830;2022-11-15T15:18:05;99851.59;;;14.32;71.78
63731;BME280;49747;51.334;6.830;2022-11-15T15:20:32;99846.13;;;14.34;71.75
63731;BME280;49747;51.334;6.830;2022-11-15T15:22:59;99838.94;;;14.34;71.78
63731;BME280;49747;51.334;6.830;2022-11-15T15:25:30;99834.13;;;14.38;71.89
63731;BME280;49747;51.334;6.830;2022-11-15T15:27:58;99831.53;;;14.28;72.15
63731;BME280;49747;51.334;6.830;2022-11-15T15:30:27;99824.34;;;14.20;72.37
63731;BME280;49747;51.334;6.830;2022-11-15T15:32:54;99829.03;;;14.26;72.37
63731;BME280;49747;51.334;6.830;2022-11-15T15:35:21;99827.00;;;14.20;72.75
63731;BME280;49747;51.334;6.830;2022-11-15T15:37:48;99818.00;;;14.21;72.63
63731;BME280;49747;51.334;6.830;2022-11-15T15:40:21;99814.78;;;14.18;73.07
63731;BME280;49747;51.334;6.830;2022-11-15T15:42:49;99815.84;;;14.25;72.76
63731;BME280;49747;51.334;6.830;2022-11-15T15:45:17;99824.59;;;14.09;73.45
63731;BME280;49747;51.334;6.830;2022-11-15T15:47:45;99815.16;;;14.23;73.05
63731;BME280;49747;51.334;6.830;2022-11-15T15:50:28;99816.63;;;14.17;73.33
63731;BME280;49747;51.334;6.830;2022-11-15T15:53:00;99811.13;;;14.19;73.63
63731;BME280;49747;51.334;6.830;2022-11-15T15:55:28;99807.13;;;14.23;73.56
63731;BME280;49747;51.334;6.830;2022-11-15T15:57:55;99806.41;;;14.13;73.67
63731;BME280;49747;51.334;6.830;2022-11-15T16:00:24;99806.03;;;14.08;74.07
63731;BME280;49747;51.334;6.830;2022-11-15T16:02:52;99808.84;;;14.06;74.00
63731;BME280;49747;51.334;6.830;2022-11-15T16:05:19;99803.22;;;14.09;74.47
63731;BME280;49747;51.334;6.830;2022-11-15T16:07:45;99791.75;;;14.17;73.76
63731;BME280;49747;51.334;6.830;2022-11-15T16:10:18;99798.28;;;14.22;73.73
63731;BME280;49747;51.334;6.830;2022-11-15T16:12:46;99789.91;;;14.17;73.68